createdAt,value
2023-01-29T00:00:10.364Z,98993.72
2023-01-29T00:01:12.215Z,98992.41
2023-01-29T00:02:13.988Z,98987.03
2023-01-29T00:03:16.163Z,98984.91
2023-01-29T00:04:18.789Z,98985.56
2023-01-29T00:05:27.869Z,98986.06
2023-01-29T00:06:30.114Z,98984.09
2023-01-29T00:07:32.651Z,98995.19
2023-01-29T00:08:38.053Z,98986.69
2023-01-29T00:09:40.212Z,98997.47
2023-01-29T00:10:41.931Z,98992.41
2023-01-29T00:11:43.765Z,98979.50
2023-01-29T00:12:45.489Z,98991.28
2023-01-29T00:13:47.501Z,98999.75
2023-01-29T00:14:49.837Z,98996.50
2023-01-29T00:15:56.697Z,99002.06
2023-01-29T00:16:58.454Z,99005.97
2023-01-29T00:18:00.193Z,98992.25
2023-01-29T00:19:02.849Z,99009.22
2023-01-29T00:20:05.079Z,99008.25
2023-01-29T00:21:18.677Z,99006.59
2023-01-29T00:22:20.364Z,98991.59
2023-01-29T00:23:22.234Z,99001.69
2023-01-29T00:24:24.002Z,99005.31
2023-01-29T00:25:25.758Z,99014.13
2023-01-29T00:26:27.915Z,99009.22
2023-01-29T00:27:29.945Z,99010.84
2023-01-29T00:28:31.745Z,99009.72
2023-01-29T00:29:33.502Z,99010.38
2023-01-29T00:30:36.976Z,99008.09
2023-01-29T00:31:38.794Z,98993.19
2023-01-29T00:32:41.258Z,98995.66
2023-01-29T00:33:42.982Z,99009.88
2023-01-29T00:34:44.695Z,99009.56
2023-01-29T00:35:46.387Z,99011.38
2023-01-29T00:36:48.075Z,99006.28
2023-01-29T00:37:49.913Z,99000.06
2023-01-29T00:39:03.679Z,99011.19
2023-01-29T00:40:06.067Z,99014.94
2023-01-29T00:41:29.294Z,99015.78
2023-01-29T00:42:49.821Z,99009.22
2023-01-29T00:44:10.352Z,99007.44
2023-01-29T00:45:12.729Z,99007.28
2023-01-29T00:46:14.447Z,99013.81
2023-01-29T00:47:31.165Z,98987.00
2023-01-29T00:48:34.341Z,99012.81
2023-01-29T00:49:36.047Z,99006.28
2023-01-29T00:50:37.779Z,99013.31
2023-01-29T00:51:39.870Z,99014.47
2023-01-29T00:52:41.841Z,99015.44
2023-01-29T00:53:43.548Z,99021.50
2023-01-29T00:54:45.236Z,99021.66
2023-01-29T00:55:46.966Z,99019.03
2023-01-29T00:56:48.683Z,99009.88
2023-01-29T00:57:50.378Z,99014.28
2023-01-29T00:58:52.207Z,99016.25
2023-01-29T00:59:54.292Z,99016.59
2023-01-29T01:00:56.273Z,99018.06
2023-01-29T01:02:16.627Z,98997.97
2023-01-29T01:03:18.347Z,99016.44
2023-01-29T01:04:20.033Z,99004.00
2023-01-29T01:05:21.850Z,99017.06
2023-01-29T01:06:23.603Z,99009.06
2023-01-29T01:07:25.396Z,99015.09
2023-01-29T01:08:45.551Z,99009.88
2023-01-29T01:10:05.905Z,99016.22
2023-01-29T01:11:07.788Z,99013.78
2023-01-29T01:12:09.482Z,99012.00
2023-01-29T01:13:11.166Z,99019.00
2023-01-29T01:14:12.911Z,99009.69
2023-01-29T01:15:14.890Z,99014.44
2023-01-29T01:16:19.150Z,99010.66
2023-01-29T01:17:21.041Z,99015.25
2023-01-29T01:18:23.039Z,99014.75
2023-01-29T01:19:24.744Z,99007.38
2023-01-29T01:20:28.603Z,99009.84
2023-01-29T01:21:30.378Z,99012.13
2023-01-29T01:22:32.131Z,99016.03
2023-01-29T01:23:33.892Z,99024.97
2023-01-29T01:24:36.194Z,99023.69
2023-01-29T01:25:38.235Z,99001.94
2023-01-29T01:26:40.121Z,99021.56
2023-01-29T01:27:41.976Z,99026.78
2023-01-29T01:28:44.542Z,99026.09
2023-01-29T01:29:46.917Z,99021.03
2023-01-29T01:30:48.641Z,99023.47
2023-01-29T01:31:50.636Z,99031.97
2023-01-29T01:32:52.724Z,99030.13
2023-01-29T01:33:55.754Z,99028.69
2023-01-29T01:34:57.574Z,99027.09
2023-01-29T01:36:02.141Z,99029.38
2023-01-29T01:37:03.914Z,99016.31
2023-01-29T01:38:05.663Z,99020.34
2023-01-29T01:39:07.428Z,99023.94
2023-01-29T01:40:18.414Z,99014.31
2023-01-29T01:41:22.038Z,99024.47
2023-01-29T01:42:30.173Z,99018.56
2023-01-29T01:43:48.979Z,99027.53
2023-01-29T01:44:53.633Z,99021.50
2023-01-29T01:45:55.427Z,99024.09
2023-01-29T01:46:57.225Z,99019.38
2023-01-29T01:48:07.413Z,99003.03
2023-01-29T01:49:16.355Z,99018.06
2023-01-29T01:50:29.932Z,99020.19
2023-01-29T01:51:34.295Z,99017.56
2023-01-29T01:52:39.972Z,99021.66
2023-01-29T01:53:51.769Z,99012.81
2023-01-29T01:54:53.513Z,99015.72
2023-01-29T01:56:02.464Z,99017.22
2023-01-29T01:57:15.977Z,99016.56
2023-01-29T01:58:28.356Z,99019.16
2023-01-29T01:59:31.148Z,99013.47
2023-01-29T02:00:32.897Z,99024.72
2023-01-29T02:01:34.816Z,99012.13
2023-01-29T02:02:58.321Z,99015.25
2023-01-29T02:04:45.140Z,99021.09
2023-01-29T02:06:06.226Z,99023.38
2023-01-29T02:07:30.397Z,99019.59
2023-01-29T02:09:18.831Z,99029.75
2023-01-29T02:10:22.443Z,99018.84
2023-01-29T02:11:24.821Z,99028.78
2023-01-29T02:12:28.890Z,99025.03
2023-01-29T02:13:30.650Z,99014.91
2023-01-29T02:14:34.597Z,99022.72
2023-01-29T02:15:36.531Z,99018.63
2023-01-29T02:16:38.393Z,99023.38
2023-01-29T02:17:40.394Z,99024.06
2023-01-29T02:18:42.159Z,99017.66
2023-01-29T02:20:18.256Z,99028.59
2023-01-29T02:21:54.534Z,99025.84
2023-01-29T02:23:54.241Z,99032.19
2023-01-29T02:25:10.580Z,99035.63
2023-01-29T02:26:21.124Z,99034.13
2023-01-29T02:28:00.263Z,99038.22
2023-01-29T02:29:27.082Z,99043.94
2023-01-29T02:30:51.890Z,99044.94
2023-01-29T02:32:02.035Z,99040.38
2023-01-29T02:33:35.976Z,99041.97
2023-01-29T02:35:20.992Z,99041.97
2023-01-29T02:36:59.384Z,99040.81
2023-01-29T02:38:29.062Z,99042.97
2023-01-29T02:39:34.237Z,99042.63
2023-01-29T02:40:35.897Z,99050.00
2023-01-29T02:42:06.781Z,99047.03
2023-01-29T02:43:33.306Z,99048.00
2023-01-29T02:44:43.866Z,99043.13
2023-01-29T02:46:00.708Z,99035.16
2023-01-29T02:47:16.763Z,99044.94
2023-01-29T02:48:22.455Z,99046.75
2023-01-29T02:49:53.187Z,99050.47
2023-01-29T02:51:14.075Z,99039.72
2023-01-29T02:52:21.378Z,99056.34
2023-01-29T02:53:32.696Z,99043.06
2023-01-29T02:54:45.233Z,99055.22
2023-01-29T02:55:56.120Z,99058.00
2023-01-29T02:57:09.273Z,99056.34
2023-01-29T02:58:20.846Z,99053.41
2023-01-29T02:59:28.570Z,99053.44
2023-01-29T03:00:38.402Z,99055.53
2023-01-29T03:01:48.667Z,99068.94
2023-01-29T03:03:06.444Z,99055.59
2023-01-29T03:04:12.637Z,99054.78
2023-01-29T03:05:27.599Z,99054.56
2023-01-29T03:06:37.632Z,99069.63
2023-01-29T03:07:46.475Z,99062.41
2023-01-29T03:08:58.564Z,99067.16
2023-01-29T03:10:03.425Z,99059.28
2023-01-29T03:11:07.291Z,99065.00
2023-01-29T03:12:40.455Z,99067.16
2023-01-29T03:13:48.164Z,99060.44
2023-01-29T03:15:10.357Z,99068.41
2023-01-29T03:16:30.214Z,99070.22
2023-01-29T03:17:39.186Z,99068.25
2023-01-29T03:18:47.053Z,99075.13
2023-01-29T03:19:49.321Z,99075.59
2023-01-29T03:21:00.577Z,99070.03
2023-01-29T03:22:06.289Z,99070.88
2023-01-29T03:23:14.538Z,99074.63
2023-01-29T03:24:41.788Z,99073.28
2023-01-29T03:26:03.251Z,99076.38
2023-01-29T03:27:28.901Z,99075.88
2023-01-29T03:28:49.293Z,99088.75
2023-01-29T03:30:12.901Z,99079.75
2023-01-29T03:31:35.994Z,99092.44
2023-01-29T03:32:40.385Z,99085.59
2023-01-29T03:33:49.915Z,99092.97
2023-01-29T03:34:58.304Z,99087.56
2023-01-29T03:36:07.120Z,99091.66
2023-01-29T03:37:15.314Z,99082.84
2023-01-29T03:38:17.329Z,99081.50
2023-01-29T03:39:19.764Z,99078.44
2023-01-29T03:40:21.466Z,99083.97
2023-01-29T03:41:33.018Z,99085.56
2023-01-29T03:43:00.309Z,99100.94
2023-01-29T03:44:50.135Z,99102.75
2023-01-29T03:46:04.439Z,99096.63
2023-01-29T03:47:21.141Z,99107.59
2023-01-29T03:48:40.795Z,99100.88
2023-01-29T03:50:03.654Z,99106.63
2023-01-29T03:51:12.144Z,99107.28
2023-01-29T03:52:26.039Z,99095.34
2023-01-29T03:53:39.983Z,99108.63
2023-01-29T03:54:47.695Z,99109.59
2023-01-29T03:55:55.523Z,99109.22
2023-01-29T03:57:05.645Z,99101.66
2023-01-29T03:58:19.475Z,99111.25
2023-01-29T03:59:33.595Z,99119.09
2023-01-29T04:00:41.767Z,99092.16
2023-01-29T04:01:55.091Z,99111.56
2023-01-29T04:03:05.620Z,99117.06
2023-01-29T04:04:14.456Z,99114.03
2023-01-29T04:05:32.228Z,99118.63
2023-01-29T04:06:37.939Z,99102.78
2023-01-29T04:07:42.023Z,99122.22
2023-01-29T04:08:52.957Z,99120.91
2023-01-29T04:10:06.808Z,99121.53
2023-01-29T04:11:13.765Z,99119.75
2023-01-29T04:12:23.108Z,99116.19
2023-01-29T04:13:25.753Z,99114.72
2023-01-29T04:14:27.671Z,99114.88
2023-01-29T04:15:34.344Z,99131.56
2023-01-29T04:16:41.322Z,99120.47
2023-01-29T04:17:51.783Z,99126.69
2023-01-29T04:18:54.816Z,99116.59
2023-01-29T04:19:56.604Z,99116.91
2023-01-29T04:20:59.617Z,99128.66
2023-01-29T04:22:14.038Z,99135.16
2023-01-29T04:23:24.341Z,99131.91
2023-01-29T04:24:26.233Z,99132.25
2023-01-29T04:25:34.743Z,99140.56
2023-01-29T04:26:51.383Z,99133.22
2023-01-29T04:28:07.054Z,99131.72
2023-01-29T04:29:34.280Z,99135.50
2023-01-29T04:30:48.096Z,99135.69
2023-01-29T04:32:13.547Z,99142.53
2023-01-29T04:33:34.051Z,99140.06
2023-01-29T04:34:59.515Z,99133.06
2023-01-29T04:36:43.306Z,99135.00
2023-01-29T04:37:58.166Z,99131.88
2023-01-29T04:39:12.043Z,99146.56
2023-01-29T04:40:37.761Z,99138.06
2023-01-29T04:41:39.393Z,99141.94
2023-01-29T04:42:55.822Z,99142.47
2023-01-29T04:44:18.947Z,99142.13
2023-01-29T04:45:34.071Z,99129.81
2023-01-29T04:46:51.616Z,99143.38
2023-01-29T04:47:56.019Z,99139.50
2023-01-29T04:49:20.048Z,99144.19
2023-01-29T04:50:28.909Z,99137.88
2023-01-29T04:51:57.249Z,99144.44
2023-01-29T04:53:12.131Z,99145.16
2023-01-29T04:54:36.808Z,99149.41
2023-01-29T04:55:50.192Z,99143.56
2023-01-29T04:57:04.617Z,99145.22
2023-01-29T04:58:17.577Z,99143.94
2023-01-29T04:59:27.462Z,99149.31
2023-01-29T05:00:34.620Z,99148.66
2023-01-29T05:01:38.982Z,99141.94
2023-01-29T05:02:44.059Z,99148.19
2023-01-29T05:03:50.578Z,99146.84
2023-01-29T05:04:54.627Z,99155.06
2023-01-29T05:05:59.563Z,99157.19
2023-01-29T05:07:12.683Z,99155.56
2023-01-29T05:08:19.602Z,99152.44
2023-01-29T05:09:22.440Z,99157.66
2023-01-29T05:10:25.540Z,99153.72
2023-01-29T05:11:27.429Z,99161.59
2023-01-29T05:12:31.334Z,99165.69
2023-01-29T05:13:39.477Z,99158.53
2023-01-29T05:14:44.703Z,99161.97
2023-01-29T05:15:53.051Z,99161.28
2023-01-29T05:16:58.803Z,99157.81
2023-01-29T05:18:03.222Z,99164.38
2023-01-29T05:19:04.962Z,99164.28
2023-01-29T05:20:07.315Z,99174.97
2023-01-29T05:21:09.658Z,99168.09
2023-01-29T05:22:16.152Z,99175.28
2023-01-29T05:23:23.463Z,99174.19
2023-01-29T05:24:26.680Z,99165.63
2023-01-29T05:25:31.816Z,99174.63
2023-01-29T05:26:52.507Z,99176.28
2023-01-29T05:28:13.628Z,99165.50
2023-01-29T05:29:15.361Z,99180.31
2023-01-29T05:30:17.516Z,99174.00
2023-01-29T05:31:19.529Z,99173.16
2023-01-29T05:32:21.310Z,99171.88
2023-01-29T05:33:28.901Z,99176.94
2023-01-29T05:34:30.645Z,99162.50
2023-01-29T05:35:32.476Z,99177.41
2023-01-29T05:36:34.230Z,99171.72
2023-01-29T05:37:36.047Z,99180.59
2023-01-29T05:38:37.744Z,99174.34
2023-01-29T05:39:39.578Z,99182.25
2023-01-29T05:40:41.448Z,99192.00
2023-01-29T05:41:43.922Z,99178.38
2023-01-29T05:42:45.612Z,99188.66
2023-01-29T05:43:47.531Z,99183.75
2023-01-29T05:44:49.318Z,99187.03
2023-01-29T05:45:59.056Z,99185.25
2023-01-29T05:47:02.847Z,99189.50
2023-01-29T05:48:04.710Z,99183.28
2023-01-29T05:49:06.884Z,99183.66
2023-01-29T05:50:09.613Z,99185.97
2023-01-29T05:51:11.378Z,99181.03
2023-01-29T05:52:13.086Z,99185.00
2023-01-29T05:53:15.124Z,99184.03
2023-01-29T05:54:16.850Z,99186.09
2023-01-29T05:55:18.621Z,99184.47
2023-01-29T05:56:20.317Z,99188.91
2023-01-29T05:57:22.356Z,99192.66
2023-01-29T05:58:24.133Z,99180.91
2023-01-29T05:59:25.969Z,99155.66
2023-01-29T06:00:27.760Z,99201.25
2023-01-29T06:01:29.904Z,99201.38
2023-01-29T06:02:31.949Z,99197.75
2023-01-29T06:03:33.648Z,99199.84
2023-01-29T06:04:35.446Z,99203.78
2023-01-29T06:05:40.350Z,99200.38
2023-01-29T06:06:42.046Z,99209.16
2023-01-29T06:07:45.395Z,99209.84
2023-01-29T06:08:47.839Z,99205.16
2023-01-29T06:09:49.559Z,99202.88
2023-01-29T06:10:51.309Z,99204.91
2023-01-29T06:11:53.033Z,99212.72
2023-01-29T06:12:54.878Z,99212.34
2023-01-29T06:13:56.589Z,99208.88
2023-01-29T06:14:58.294Z,99215.72
2023-01-29T06:16:00.237Z,99217.66
2023-01-29T06:17:01.983Z,99215.06
2023-01-29T06:18:03.714Z,99214.91
2023-01-29T06:19:05.474Z,99211.16
2023-01-29T06:20:08.396Z,99203.78
2023-01-29T06:21:12.864Z,99222.19
2023-01-29T06:22:14.638Z,99195.31
2023-01-29T06:23:16.411Z,99223.69
2023-01-29T06:24:18.147Z,99227.03
2023-01-29T06:25:19.885Z,99226.53
2023-01-29T06:26:21.733Z,99234.38
2023-01-29T06:27:23.445Z,99223.69
2023-01-29T06:28:25.135Z,99223.13
2023-01-29T06:29:26.863Z,99224.91
2023-01-29T06:30:28.633Z,99215.88
2023-01-29T06:31:38.917Z,99218.47
2023-01-29T06:32:41.199Z,99237.78
2023-01-29T06:33:43.116Z,99229.19
2023-01-29T06:34:44.918Z,99239.72
2023-01-29T06:35:46.598Z,99242.41
2023-01-29T06:36:48.343Z,99244.56
2023-01-29T06:37:50.042Z,99232.78
2023-01-29T06:38:51.745Z,99229.72
2023-01-29T06:39:53.494Z,99239.06
2023-01-29T06:40:56.000Z,99245.59
2023-01-29T06:41:57.737Z,99241.19
2023-01-29T06:43:00.982Z,99250.28
2023-01-29T06:44:02.752Z,99251.88
2023-01-29T06:45:05.177Z,99246.94
2023-01-29T06:46:08.859Z,99250.91
2023-01-29T06:47:10.676Z,99251.91
2023-01-29T06:48:12.379Z,99204.91
2023-01-29T06:49:14.071Z,99253.72
2023-01-29T06:50:16.101Z,99253.22
2023-01-29T06:51:18.613Z,99255.16
2023-01-29T06:52:20.359Z,99256.41
2023-01-29T06:53:22.347Z,99258.81
2023-01-29T06:54:24.093Z,99265.34
2023-01-29T06:55:25.779Z,99255.22
2023-01-29T06:56:27.548Z,99265.19
2023-01-29T06:57:30.273Z,99262.97
2023-01-29T06:58:32.287Z,99262.59
2023-01-29T06:59:34.583Z,99262.91
2023-01-29T07:00:36.917Z,99257.69
2023-01-29T07:01:44.457Z,99261.31
2023-01-29T07:02:49.751Z,99263.13
2023-01-29T07:03:51.993Z,99266.25
2023-01-29T07:04:53.703Z,99268.53
2023-01-29T07:05:55.395Z,99263.19
2023-01-29T07:06:57.129Z,99269.44
2023-01-29T07:07:58.823Z,99265.34
2023-01-29T07:09:00.657Z,99268.63
2023-01-29T07:10:02.393Z,99263.94
2023-01-29T07:11:04.626Z,99271.78
2023-01-29T07:12:06.858Z,99272.13
2023-01-29T07:13:08.547Z,99266.06
2023-01-29T07:14:10.302Z,99274.56
2023-01-29T07:15:12.905Z,99276.91
2023-01-29T07:16:14.677Z,99274.06
2023-01-29T07:17:16.499Z,99279.81
2023-01-29T07:18:18.229Z,99271.78
2023-01-29T07:19:19.938Z,99277.47
2023-01-29T07:20:21.654Z,99271.44
2023-01-29T07:21:23.885Z,99279.94
2023-01-29T07:22:25.602Z,99288.31
2023-01-29T07:23:27.387Z,99282.78
2023-01-29T07:24:29.247Z,99287.38
2023-01-29T07:25:31.139Z,99287.25
2023-01-29T07:26:32.880Z,99275.94
2023-01-29T07:27:34.591Z,99284.25
2023-01-29T07:28:38.253Z,99288.84
2023-01-29T07:29:39.964Z,99287.38
2023-01-29T07:30:41.690Z,99285.75
2023-01-29T07:31:43.560Z,99291.63
2023-01-29T07:32:45.480Z,99271.06
2023-01-29T07:33:47.350Z,99285.97
2023-01-29T07:34:49.079Z,99280.44
2023-01-29T07:35:50.864Z,99291.19
2023-01-29T07:36:56.945Z,99287.63
2023-01-29T07:37:58.764Z,99290.09
2023-01-29T07:39:00.486Z,99281.34
2023-01-29T07:40:02.347Z,99290.81
2023-01-29T07:41:04.340Z,99287.09
2023-01-29T07:42:06.111Z,99288.44
2023-01-29T07:43:09.837Z,99288.63
2023-01-29T07:44:11.644Z,99286.84
2023-01-29T07:45:13.390Z,99294.38
2023-01-29T07:46:15.356Z,99293.09
2023-01-29T07:47:17.402Z,99289.97
2023-01-29T07:48:19.620Z,99288.03
2023-01-29T07:49:21.318Z,99284.91
2023-01-29T07:50:27.664Z,99292.13
2023-01-29T07:51:29.631Z,99287.38
2023-01-29T07:52:33.099Z,99289.50
2023-01-29T07:53:35.916Z,99293.47
2023-01-29T07:54:37.655Z,99273.91
2023-01-29T07:55:39.404Z,99286.97
2023-01-29T07:56:41.093Z,99293.16
2023-01-29T07:57:42.987Z,99287.94
2023-01-29T07:58:44.770Z,99297.28
2023-01-29T07:59:46.479Z,99292.88
2023-01-29T08:00:48.394Z,99287.66
2023-01-29T08:01:50.155Z,99290.31
2023-01-29T08:02:52.266Z,99276.56
2023-01-29T08:03:53.966Z,99280.53
2023-01-29T08:04:55.742Z,99294.09
2023-01-29T08:05:58.279Z,99296.03
2023-01-29T08:06:59.961Z,99296.19
2023-01-29T08:08:06.918Z,99297.00
2023-01-29T08:09:10.377Z,99296.75
2023-01-29T08:10:12.314Z,99301.19
2023-01-29T08:11:14.080Z,99280.78
2023-01-29T08:12:15.846Z,99298.38
2023-01-29T08:13:17.563Z,99295.28
2023-01-29T08:14:19.340Z,99295.78
2023-01-29T08:15:21.154Z,99308.63
2023-01-29T08:16:23.643Z,99307.69
2023-01-29T08:17:25.448Z,99294.47
2023-01-29T08:18:27.862Z,99295.59
2023-01-29T08:19:29.613Z,99314.63
2023-01-29T08:20:31.409Z,99305.47
2023-01-29T08:21:33.135Z,99291.59
2023-01-29T08:22:34.850Z,99305.66
2023-01-29T08:23:36.568Z,99305.50
2023-01-29T08:24:53.288Z,99288.00
2023-01-29T08:26:00.007Z,99299.53
2023-01-29T08:27:01.704Z,99311.34
2023-01-29T08:28:04.913Z,99301.84
2023-01-29T08:29:06.615Z,99317.91
2023-01-29T08:30:09.964Z,99309.38
2023-01-29T08:31:20.837Z,99318.72
2023-01-29T08:32:22.600Z,99308.41
2023-01-29T08:33:38.048Z,99313.34
2023-01-29T08:34:40.620Z,99311.19
2023-01-29T08:35:42.373Z,99312.69
2023-01-29T08:36:44.330Z,99314.00
2023-01-29T08:37:53.188Z,99314.00
2023-01-29T08:38:54.902Z,99320.22
2023-01-29T08:39:56.622Z,99324.13
2023-01-29T08:40:58.332Z,99312.00
2023-01-29T08:41:59.997Z,99315.28
2023-01-29T08:43:06.859Z,99319.56
2023-01-29T08:44:08.991Z,99323.66
2023-01-29T08:45:11.239Z,99316.31
2023-01-29T08:46:13.200Z,99315.97
2023-01-29T08:47:15.158Z,99323.50
2023-01-29T08:48:16.956Z,99325.75
2023-01-29T08:49:18.737Z,99333.97
2023-01-29T08:50:20.514Z,99286.16
2023-01-29T08:51:22.707Z,99325.44
2023-01-29T08:52:24.426Z,99329.72
2023-01-29T08:53:26.384Z,99320.72
2023-01-29T08:54:28.063Z,99325.13
2023-01-29T08:55:29.803Z,99323.19
2023-01-29T08:56:31.529Z,99325.31
2023-01-29T08:57:33.257Z,99322.22
2023-01-29T08:58:34.959Z,99332.84
2023-01-29T08:59:36.710Z,99316.16
2023-01-29T09:00:38.770Z,99322.88
2023-01-29T09:01:40.529Z,99313.69
2023-01-29T09:02:42.371Z,99318.09
2023-01-29T09:03:44.765Z,99324.00
2023-01-29T09:04:46.532Z,99317.28
2023-01-29T09:05:49.299Z,99317.59
2023-01-29T09:06:51.080Z,99316.81
2023-01-29T09:07:54.250Z,99317.28
2023-01-29T09:08:56.146Z,99316.78
2023-01-29T09:09:58.155Z,99324.97
2023-01-29T09:11:00.421Z,99307.78
2023-01-29T09:12:02.110Z,99326.78
2023-01-29T09:13:04.519Z,99314.50
2023-01-29T09:14:06.493Z,99326.63
2023-01-29T09:15:08.775Z,99311.72
2023-01-29T09:16:10.963Z,99309.94
2023-01-29T09:17:12.662Z,99326.63
2023-01-29T09:18:14.366Z,99321.88
2023-01-29T09:19:16.109Z,99326.47
2023-01-29T09:20:18.666Z,99318.31
2023-01-29T09:21:20.460Z,99320.41
2023-01-29T09:22:22.218Z,99322.22
2023-01-29T09:23:24.274Z,99324.19
2023-01-29T09:24:26.031Z,99327.78
2023-01-29T09:25:27.728Z,99325.16
2023-01-29T09:26:29.502Z,99319.13
2023-01-29T09:27:31.231Z,99317.47
2023-01-29T09:28:32.931Z,99311.44
2023-01-29T09:29:35.945Z,99324.66
2023-01-29T09:30:38.332Z,99327.78
2023-01-29T09:31:40.291Z,99327.44
2023-01-29T09:32:57.271Z,99319.44
2023-01-29T09:33:59.027Z,99318.63
2023-01-29T09:35:00.806Z,99323.53
2023-01-29T09:36:05.791Z,99317.31
2023-01-29T09:37:07.591Z,99322.06
2023-01-29T09:38:10.853Z,99327.47
2023-01-29T09:39:12.611Z,99319.59
2023-01-29T09:40:27.248Z,99310.78
2023-01-29T09:41:49.547Z,99312.25
2023-01-29T09:42:58.155Z,99313.22
2023-01-29T09:44:03.725Z,99314.72
2023-01-29T09:45:10.946Z,99318.31
2023-01-29T09:46:20.306Z,99309.47
2023-01-29T09:47:25.186Z,99315.38
2023-01-29T09:48:30.405Z,99300.63
2023-01-29T09:49:41.787Z,99304.56
2023-01-29T09:50:46.791Z,99313.56
2023-01-29T09:51:52.543Z,99308.50
2023-01-29T09:53:11.139Z,99308.50
2023-01-29T09:54:25.964Z,99305.88
2023-01-29T09:55:32.756Z,99320.25
2023-01-29T09:56:35.478Z,99309.63
2023-01-29T09:57:50.303Z,99302.91
2023-01-29T09:58:52.050Z,99303.75
2023-01-29T09:59:54.768Z,99302.09
2023-01-29T10:01:20.980Z,99313.06
2023-01-29T10:02:46.386Z,99305.22
2023-01-29T10:04:09.090Z,99307.66
2023-01-29T10:05:44.919Z,99303.91
2023-01-29T10:07:09.815Z,99285.91
2023-01-29T10:08:34.512Z,99298.34
2023-01-29T10:10:07.672Z,99303.56
2023-01-29T10:11:27.367Z,99302.09
2023-01-29T10:13:03.153Z,99300.28
2023-01-29T10:14:38.291Z,99302.28
2023-01-29T10:15:46.117Z,99296.06
2023-01-29T10:17:06.223Z,99298.50
2023-01-29T10:18:42.065Z,99297.66
2023-01-29T10:19:52.915Z,99297.66
2023-01-29T10:21:14.259Z,99289.97
2023-01-29T10:22:27.825Z,99283.56
2023-01-29T10:23:35.030Z,99284.25
2023-01-29T10:24:54.714Z,99294.34
2023-01-29T10:25:56.933Z,99283.56
2023-01-29T10:26:59.959Z,99286.38
2023-01-29T10:28:01.957Z,99277.03
2023-01-29T10:29:07.398Z,99271.78
2023-01-29T10:30:20.085Z,99278.34
2023-01-29T10:31:28.675Z,99279.00
2023-01-29T10:32:31.983Z,99275.06
2023-01-29T10:33:49.540Z,99271.94
2023-01-29T10:35:38.043Z,99275.56
2023-01-29T10:36:45.522Z,99266.53
2023-01-29T10:37:47.855Z,99264.88
2023-01-29T10:38:51.161Z,99263.06
2023-01-29T10:39:52.891Z,99274.00
2023-01-29T10:41:11.570Z,99270.41
2023-01-29T10:42:35.354Z,99271.66
2023-01-29T10:44:00.867Z,99266.44
2023-01-29T10:45:43.043Z,99263.69
2023-01-29T10:46:50.432Z,99258.88
2023-01-29T10:48:58.114Z,99262.44
2023-01-29T10:50:33.448Z,99263.41
2023-01-29T10:51:43.734Z,99263.88
2023-01-29T10:53:05.148Z,99262.59
2023-01-29T10:54:20.261Z,99255.19
2023-01-29T10:55:37.448Z,99254.66
2023-01-29T10:56:41.764Z,99254.16
2023-01-29T10:57:49.058Z,99253.47
2023-01-29T10:58:55.728Z,99251.66
2023-01-29T11:00:07.258Z,99255.41
2023-01-29T11:01:10.797Z,99243.28
2023-01-29T11:02:18.033Z,99240.81
2023-01-29T11:03:29.455Z,99241.97
2023-01-29T11:04:32.389Z,99241.59
2023-01-29T11:06:10.427Z,99240.59
2023-01-29T11:07:13.893Z,99245.72
2023-01-29T11:08:25.686Z,99240.66
2023-01-29T11:09:43.080Z,99237.06
2023-01-29T11:11:09.811Z,99236.72
2023-01-29T11:12:20.903Z,99240.19
2023-01-29T11:13:33.655Z,99239.34
2023-01-29T11:14:48.198Z,99230.16
2023-01-29T11:15:52.879Z,99237.44
2023-01-29T11:16:55.736Z,99233.81
2023-01-29T11:18:17.239Z,99236.97
2023-01-29T11:19:22.304Z,99238.09
2023-01-29T11:20:28.788Z,99238.59
2023-01-29T11:21:30.534Z,99218.81
2023-01-29T11:22:32.353Z,99228.09
2023-01-29T11:23:34.296Z,99220.72
2023-01-29T11:24:36.014Z,99227.88
2023-01-29T11:25:37.806Z,99229.00
2023-01-29T11:26:42.786Z,99224.97
2023-01-29T11:27:51.107Z,99217.78
2023-01-29T11:28:52.902Z,99227.44
2023-01-29T11:29:55.611Z,99216.13
2023-01-29T11:30:57.809Z,99222.63
2023-01-29T11:32:03.256Z,99223.44
2023-01-29T11:33:08.451Z,99222.69
2023-01-29T11:34:19.618Z,99209.56
2023-01-29T11:35:24.712Z,99213.66
2023-01-29T11:36:38.248Z,99206.78
2023-01-29T11:37:42.140Z,99210.97
2023-01-29T11:38:43.882Z,99200.31
2023-01-29T11:39:49.021Z,99208.28
2023-01-29T11:40:51.686Z,99193.72
2023-01-29T11:42:04.588Z,99212.50
2023-01-29T11:43:12.574Z,99201.88
2023-01-29T11:44:41.592Z,99195.91
2023-01-29T11:45:44.176Z,99200.81
2023-01-29T11:46:46.693Z,99194.28
2023-01-29T11:47:54.887Z,99198.81
2023-01-29T11:48:59.194Z,99196.44
2023-01-29T11:50:04.995Z,99201.41
2023-01-29T11:51:07.864Z,99198.97
2023-01-29T11:52:11.612Z,99193.75
2023-01-29T11:53:42.423Z,99198.91
2023-01-29T11:54:52.053Z,99195.22
2023-01-29T11:55:56.000Z,99193.00
2023-01-29T11:56:58.745Z,99173.41
2023-01-29T11:58:16.259Z,99199.91
2023-01-29T11:59:26.550Z,99188.59
2023-01-29T12:00:31.874Z,99193.31
2023-01-29T12:01:37.815Z,99193.59
2023-01-29T12:02:45.924Z,99193.94
2023-01-29T12:03:54.006Z,99184.25
2023-01-29T12:04:58.739Z,99181.59
2023-01-29T12:06:06.016Z,99181.25
2023-01-29T12:07:14.884Z,99191.00
2023-01-29T12:08:18.706Z,99188.56
2023-01-29T12:09:24.503Z,99179.69
2023-01-29T12:10:41.110Z,99186.28
2023-01-29T12:11:43.039Z,99190.84
2023-01-29T12:12:44.850Z,99184.25
2023-01-29T12:13:54.955Z,99181.69
2023-01-29T12:15:16.364Z,99182.16
2023-01-29T12:16:36.196Z,99174.63
2023-01-29T12:17:39.837Z,99167.81
2023-01-29T12:18:51.215Z,99176.16
2023-01-29T12:19:57.312Z,99178.63
2023-01-29T12:21:04.961Z,99178.41
2023-01-29T12:22:20.686Z,99174.97
2023-01-29T12:23:22.409Z,99172.28
2023-01-29T12:24:44.251Z,99177.72
2023-01-29T12:26:07.499Z,99178.41
2023-01-29T12:27:32.022Z,99171.66
2023-01-29T12:28:42.480Z,99166.28
2023-01-29T12:29:56.724Z,99164.28
2023-01-29T12:31:29.647Z,99163.94
2023-01-29T12:33:09.887Z,99169.09
2023-01-29T12:34:20.625Z,99166.28
2023-01-29T12:35:33.878Z,99164.59
2023-01-29T12:36:42.002Z,99165.47
2023-01-29T12:38:01.942Z,99162.59
2023-01-29T12:39:03.710Z,99153.25
2023-01-29T12:40:13.080Z,99158.69
2023-01-29T12:41:37.946Z,99165.56
2023-01-29T12:42:43.595Z,99167.28
2023-01-29T12:43:49.597Z,99163.47
2023-01-29T12:45:08.816Z,99156.28
2023-01-29T12:46:22.863Z,99144.88
2023-01-29T12:47:27.781Z,99162.56
2023-01-29T12:48:38.644Z,99158.22
2023-01-29T12:49:43.025Z,99157.88
2023-01-29T12:50:46.388Z,99155.13
2023-01-29T12:52:13.799Z,99153.16
2023-01-29T12:53:40.350Z,99163.41
2023-01-29T12:54:50.145Z,99141.19
2023-01-29T12:55:58.190Z,99152.97
2023-01-29T12:57:04.006Z,99147.28
2023-01-29T12:58:14.308Z,99164.75
2023-01-29T12:59:28.923Z,99161.13
2023-01-29T13:00:37.760Z,99161.94
2023-01-29T13:01:48.142Z,99165.69
2023-01-29T13:02:49.903Z,99164.16
2023-01-29T13:04:06.555Z,99156.66
2023-01-29T13:05:31.497Z,99151.31
2023-01-29T13:06:41.736Z,99149.50
2023-01-29T13:07:48.096Z,99156.56
2023-01-29T13:08:56.945Z,99162.47
2023-01-29T13:10:08.263Z,99163.47
2023-01-29T13:11:25.355Z,99158.31
2023-01-29T13:12:27.495Z,99155.84
2023-01-29T13:13:37.497Z,99155.13
2023-01-29T13:14:58.701Z,99156.56
2023-01-29T13:16:01.681Z,99154.56
2023-01-29T13:17:14.389Z,99146.75
2023-01-29T13:18:34.414Z,99158.91